sensor_id;sensor_type;location;lat;lon;timestamp;P1;durP1;ratioP1;P2;durP2;ratioP2
18286;SDS011;9269;50.838;12.094;2024-03-02T00:01:54;22.27;;;14.70;;
18286;SDS011;9269;50.838;12.094;2024-03-02T00:04:23;23.47;;;15.03;;
18286;SDS011;9269;50.838;12.094;2024-03-02T00:06:53;20.77;;;14.90;;
18286;SDS011;9269;50.838;12.094;2024-03-02T00:09:41;24.13;;;16.23;;
18286;SDS011;9269;50.838;12.094;2024-03-02T00:12:14;20.87;;;15.00;;
18286;SDS011;9269;50.838;12.094;2024-03-02T00:14:44;20.33;;;15.57;;
18286;SDS011;9269;50.838;12.094;2024-03-02T00:17:17;21.83;;;15.33;;
18286;SDS011;9269;50.838;12.094;2024-03-02T00:20:49;21.47;;;15.63;;
18286;SDS011;9269;50.838;12.094;2024-03-02T00:23:23;19.63;;;14.67;;
18286;SDS011;9269;50.838;12.094;2024-03-02T00:25:53;24.63;;;17.00;;
18286;SDS011;9269;50.838;12.094;2024-03-02T00:28:41;20.90;;;15.67;;
18286;SDS011;9269;50.838;12.094;2024-03-02T00:31:31;20.27;;;15.30;;
18286;SDS011;9269;50.838;12.094;2024-03-02T00:34:03;24.00;;;15.20;;
18286;SDS011;9269;50.838;12.094;2024-03-02T00:36:36;21.83;;;15.20;;
18286;SDS011;9269;50.838;12.094;2024-03-02T00:39:09;20.23;;;14.57;;
18286;SDS011;9269;50.838;12.094;2024-03-02T00:41:43;20.90;;;14.73;;
18286;SDS011;9269;50.838;12.094;2024-03-02T00:44:12;19.73;;;14.67;;
18286;SDS011;9269;50.838;12.094;2024-03-02T00:46:42;19.47;;;13.80;;
18286;SDS011;9269;50.838;12.094;2024-03-02T00:49:28;20.73;;;14.13;;
18286;SDS011;9269;50.838;12.094;2024-03-02T00:51:56;19.70;;;13.80;;
18286;SDS011;9269;50.838;12.094;2024-03-02T00:54:29;20.53;;;14.10;;
18286;SDS011;9269;50.838;12.094;2024-03-02T00:56:59;19.40;;;14.37;;
18286;SDS011;9269;50.838;12.094;2024-03-02T00:59:29;19.50;;;13.47;;
18286;SDS011;9269;50.838;12.094;2024-03-02T01:01:59;19.70;;;13.70;;
18286;SDS011;9269;50.838;12.094;2024-03-02T01:04:28;18.30;;;12.87;;
18286;SDS011;9269;50.838;12.094;2024-03-02T01:06:56;20.43;;;13.80;;
18286;SDS011;9269;50.838;12.094;2024-03-02T01:09:26;19.00;;;13.17;;
18286;SDS011;9269;50.838;12.094;2024-03-02T01:11:55;20.97;;;13.83;;
18286;SDS011;9269;50.838;12.094;2024-03-02T01:14:24;17.60;;;13.23;;
18286;SDS011;9269;50.838;12.094;2024-03-02T01:16:54;17.53;;;12.93;;
18286;SDS011;9269;50.838;12.094;2024-03-02T01:19:23;16.80;;;12.67;;
18286;SDS011;9269;50.838;12.094;2024-03-02T01:21:53;24.37;;;14.90;;
18286;SDS011;9269;50.838;12.094;2024-03-02T01:24:24;18.63;;;13.53;;
18286;SDS011;9269;50.838;12.094;2024-03-02T01:26:52;22.63;;;16.87;;
18286;SDS011;9269;50.838;12.094;2024-03-02T01:29:23;20.50;;;15.83;;
18286;SDS011;9269;50.838;12.094;2024-03-02T01:31:51;25.63;;;18.23;;
18286;SDS011;9269;50.838;12.094;2024-03-02T01:34:20;25.80;;;19.00;;
18286;SDS011;9269;50.838;12.094;2024-03-02T01:37:04;23.37;;;17.87;;
18286;SDS011;9269;50.838;12.094;2024-03-02T01:39:34;23.97;;;17.20;;
18286;SDS011;9269;50.838;12.094;2024-03-02T01:42:05;20.80;;;14.97;;
18286;SDS011;9269;50.838;12.094;2024-03-02T01:44:38;22.90;;;15.33;;
18286;SDS011;9269;50.838;12.094;2024-03-02T01:47:10;18.57;;;14.40;;
18286;SDS011;9269;50.838;12.094;2024-03-02T01:49:39;17.47;;;13.23;;
18286;SDS011;9269;50.838;12.094;2024-03-02T01:52:07;20.00;;;14.13;;
18286;SDS011;9269;50.838;12.094;2024-03-02T01:54:36;21.30;;;14.87;;
18286;SDS011;9269;50.838;12.094;2024-03-02T01:57:04;20.40;;;15.07;;
18286;SDS011;9269;50.838;12.094;2024-03-02T01:59:36;23.33;;;15.60;;
18286;SDS011;9269;50.838;12.094;2024-03-02T02:02:07;20.47;;;14.57;;
18286;SDS011;9269;50.838;12.094;2024-03-02T02:04:35;22.67;;;15.57;;
18286;SDS011;9269;50.838;12.094;2024-03-02T02:07:05;20.83;;;14.53;;
18286;SDS011;9269;50.838;12.094;2024-03-02T02:09:34;21.57;;;15.03;;
18286;SDS011;9269;50.838;12.094;2024-03-02T02:12:02;22.47;;;15.17;;
18286;SDS011;9269;50.838;12.094;2024-03-02T02:14:33;23.17;;;15.07;;
18286;SDS011;9269;50.838;12.094;2024-03-02T02:17:01;22.10;;;15.10;;
18286;SDS011;9269;50.838;12.094;2024-03-02T02:19:31;23.07;;;15.20;;
18286;SDS011;9269;50.838;12.094;2024-03-02T02:22:04;20.37;;;14.50;;
18286;SDS011;9269;50.838;12.094;2024-03-02T02:24:33;20.73;;;15.03;;
18286;SDS011;9269;50.838;12.094;2024-03-02T02:27:04;21.57;;;15.83;;
18286;SDS011;9269;50.838;12.094;2024-03-02T02:29:35;24.63;;;15.70;;
18286;SDS011;9269;50.838;12.094;2024-03-02T02:32:04;21.70;;;15.03;;
18286;SDS011;9269;50.838;12.094;2024-03-02T02:34:33;21.27;;;14.97;;
18286;SDS011;9269;50.838;12.094;2024-03-02T02:37:01;19.80;;;14.07;;
18286;SDS011;9269;50.838;12.094;2024-03-02T02:39:31;24.13;;;14.77;;
18286;SDS011;9269;50.838;12.094;2024-03-02T02:42:19;22.90;;;15.67;;
18286;SDS011;9269;50.838;12.094;2024-03-02T02:44:51;27.77;;;19.73;;
18286;SDS011;9269;50.838;12.094;2024-03-02T02:47:22;30.20;;;20.13;;
18286;SDS011;9269;50.838;12.094;2024-03-02T02:49:54;29.90;;;22.57;;
18286;SDS011;9269;50.838;12.094;2024-03-02T02:52:25;33.93;;;22.23;;
18286;SDS011;9269;50.838;12.094;2024-03-02T02:54:53;30.13;;;20.70;;
18286;SDS011;9269;50.838;12.094;2024-03-02T02:57:21;24.23;;;18.80;;
18286;SDS011;9269;50.838;12.094;2024-03-02T02:59:50;28.93;;;18.50;;
18286;SDS011;9269;50.838;12.094;2024-03-02T03:02:18;29.23;;;19.70;;
18286;SDS011;9269;50.838;12.094;2024-03-02T03:04:50;28.20;;;19.03;;
18286;SDS011;9269;50.838;12.094;2024-03-02T03:07:21;25.73;;;18.73;;
18286;SDS011;9269;50.838;12.094;2024-03-02T03:09:53;30.00;;;20.30;;
18286;SDS011;9269;50.838;12.094;2024-03-02T03:12:25;28.43;;;19.30;;
18286;SDS011;9269;50.838;12.094;2024-03-02T03:14:53;30.17;;;22.60;;
18286;SDS011;9269;50.838;12.094;2024-03-02T03:17:23;35.53;;;23.17;;
18286;SDS011;9269;50.838;12.094;2024-03-02T03:19:51;33.57;;;23.10;;
18286;SDS011;9269;50.838;12.094;2024-03-02T03:22:18;35.13;;;24.23;;
18286;SDS011;9269;50.838;12.094;2024-03-02T03:24:47;30.40;;;21.17;;
18286;SDS011;9269;50.838;12.094;2024-03-02T03:27:35;28.27;;;19.40;;
18286;SDS011;9269;50.838;12.094;2024-03-02T03:30:07;26.70;;;17.73;;
18286;SDS011;9269;50.838;12.094;2024-03-02T03:32:39;25.47;;;17.97;;
18286;SDS011;9269;50.838;12.094;2024-03-02T03:35:08;24.93;;;17.13;;
18286;SDS011;9269;50.838;12.094;2024-03-02T03:37:37;24.63;;;16.70;;
18286;SDS011;9269;50.838;12.094;2024-03-02T03:40:05;27.03;;;17.60;;
18286;SDS011;9269;50.838;12.094;2024-03-02T03:42:38;28.40;;;17.50;;
18286;SDS011;9269;50.838;12.094;2024-03-02T03:45:07;25.97;;;18.07;;
18286;SDS011;9269;50.838;12.094;2024-03-02T03:47:56;25.17;;;16.67;;
18286;SDS011;9269;50.838;12.094;2024-03-02T03:50:25;25.77;;;16.23;;
18286;SDS011;9269;50.838;12.094;2024-03-02T03:52:55;25.13;;;16.43;;
18286;SDS011;9269;50.838;12.094;2024-03-02T03:55:25;23.60;;;16.27;;
18286;SDS011;9269;50.838;12.094;2024-03-02T03:57:57;22.83;;;15.30;;
18286;SDS011;9269;50.838;12.094;2024-03-02T04:00:26;21.50;;;15.40;;
18286;SDS011;9269;50.838;12.094;2024-03-02T04:02:55;23.73;;;15.70;;
18286;SDS011;9269;50.838;12.094;2024-03-02T04:05:23;25.60;;;15.50;;
18286;SDS011;9269;50.838;12.094;2024-03-02T04:07:52;20.33;;;14.30;;
18286;SDS011;9269;50.838;12.094;2024-03-02T04:10:23;24.23;;;16.00;;
18286;SDS011;9269;50.838;12.094;2024-03-02T04:12:55;22.77;;;15.57;;
18286;SDS011;9269;50.838;12.094;2024-03-02T04:15:27;24.00;;;15.70;;
18286;SDS011;9269;50.838;12.094;2024-03-02T04:17:59;23.83;;;15.00;;
18286;SDS011;9269;50.838;12.094;2024-03-02T04:20:27;24.73;;;16.00;;
18286;SDS011;9269;50.838;12.094;2024-03-02T04:22:56;21.87;;;15.47;;
18286;SDS011;9269;50.838;12.094;2024-03-02T04:25:24;24.90;;;15.73;;
18286;SDS011;9269;50.838;12.094;2024-03-02T04:27:53;23.73;;;15.57;;
18286;SDS011;9269;50.838;12.094;2024-03-02T04:30:21;20.33;;;14.80;;
18286;SDS011;9269;50.838;12.094;2024-03-02T04:32:54;23.77;;;16.17;;
18286;SDS011;9269;50.838;12.094;2024-03-02T04:35:25;23.47;;;15.10;;
18286;SDS011;9269;50.838;12.094;2024-03-02T04:37:54;23.37;;;16.03;;
18286;SDS011;9269;50.838;12.094;2024-03-02T04:40:25;23.30;;;16.27;;
18286;SDS011;9269;50.838;12.094;2024-03-02T04:42:54;26.53;;;16.50;;
18286;SDS011;9269;50.838;12.094;2024-03-02T04:45:23;23.77;;;16.00;;
18286;SDS011;9269;50.838;12.094;2024-03-02T04:47:53;22.83;;;15.93;;
18286;SDS011;9269;50.838;12.094;2024-03-02T04:50:22;24.77;;;16.73;;
18286;SDS011;9269;50.838;12.094;2024-03-02T04:52:50;19.27;;;14.90;;
18286;SDS011;9269;50.838;12.094;2024-03-02T04:55:19;25.80;;;16.13;;
18286;SDS011;9269;50.838;12.094;2024-03-02T04:58:19;25.20;;;16.03;;
18286;SDS011;9269;50.838;12.094;2024-03-02T05:00:48;26.03;;;16.93;;
18286;SDS011;9269;50.838;12.094;2024-03-02T05:03:19;22.03;;;16.33;;
18286;SDS011;9269;50.838;12.094;2024-03-02T05:06:08;24.93;;;17.00;;
18286;SDS011;9269;50.838;12.094;2024-03-02T05:08:58;29.43;;;19.30;;
18286;SDS011;9269;50.838;12.094;2024-03-02T05:11:26;38.37;;;25.47;;
18286;SDS011;9269;50.838;12.094;2024-03-02T05:14:25;28.80;;;20.60;;
18286;SDS011;9269;50.838;12.094;2024-03-02T05:16:57;32.43;;;23.40;;
18286;SDS011;9269;50.838;12.094;2024-03-02T05:19:29;28.97;;;21.00;;
18286;SDS011;9269;50.838;12.094;2024-03-02T05:21:59;35.13;;;23.83;;
18286;SDS011;9269;50.838;12.094;2024-03-02T05:24:29;31.47;;;23.93;;
18286;SDS011;9269;50.838;12.094;2024-03-02T05:26:58;41.67;;;27.50;;
18286;SDS011;9269;50.838;12.094;2024-03-02T05:29:26;40.93;;;27.37;;
18286;SDS011;9269;50.838;12.094;2024-03-02T05:32:16;47.07;;;33.10;;
18286;SDS011;9269;50.838;12.094;2024-03-02T05:34:45;43.00;;;29.87;;
18286;SDS011;9269;50.838;12.094;2024-03-02T05:37:31;39.20;;;27.70;;
18286;SDS011;9269;50.838;12.094;2024-03-02T05:40:01;32.27;;;20.47;;
18286;SDS011;9269;50.838;12.094;2024-03-02T05:42:33;31.53;;;22.43;;
18286;SDS011;9269;50.838;12.094;2024-03-02T05:45:05;33.07;;;21.17;;
18286;SDS011;9269;50.838;12.094;2024-03-02T05:47:33;26.17;;;17.63;;
18286;SDS011;9269;50.838;12.094;2024-03-02T05:50:04;29.87;;;20.23;;
18286;SDS011;9269;50.838;12.094;2024-03-02T05:52:34;26.83;;;18.20;;
18286;SDS011;9269;50.838;12.094;2024-03-02T05:55:02;26.17;;;16.27;;
18286;SDS011;9269;50.838;12.094;2024-03-02T05:57:31;23.17;;;17.00;;
18286;SDS011;9269;50.838;12.094;2024-03-02T06:00:16;26.27;;;17.50;;
18286;SDS011;9269;50.838;12.094;2024-03-02T06:02:47;24.80;;;16.63;;
18286;SDS011;9269;50.838;12.094;2024-03-02T06:05:17;25.00;;;16.30;;
18286;SDS011;9269;50.838;12.094;2024-03-02T06:07:47;25.63;;;16.33;;
18286;SDS011;9269;50.838;12.094;2024-03-02T06:10:15;28.20;;;17.00;;
18286;SDS011;9269;50.838;12.094;2024-03-02T06:12:44;28.37;;;17.57;;
18286;SDS011;9269;50.838;12.094;2024-03-02T06:15:12;29.00;;;18.23;;
18286;SDS011;9269;50.838;12.094;2024-03-02T06:17:41;26.23;;;16.93;;
18286;SDS011;9269;50.838;12.094;2024-03-02T06:20:10;22.27;;;15.63;;
18286;SDS011;9269;50.838;12.094;2024-03-02T06:22:43;24.27;;;16.63;;
18286;SDS011;9269;50.838;12.094;2024-03-02T06:25:11;24.07;;;16.17;;
18286;SDS011;9269;50.838;12.094;2024-03-02T06:27:43;24.67;;;16.47;;
18286;SDS011;9269;50.838;12.094;2024-03-02T06:30:14;27.40;;;16.80;;
18286;SDS011;9269;50.838;12.094;2024-03-02T06:32:43;23.13;;;16.47;;
18286;SDS011;9269;50.838;12.094;2024-03-02T06:35:11;28.87;;;17.77;;
18286;SDS011;9269;50.838;12.094;2024-03-02T06:37:40;27.50;;;17.30;;
18286;SDS011;9269;50.838;12.094;2024-03-02T06:40:10;27.50;;;17.73;;
18286;SDS011;9269;50.838;12.094;2024-03-02T06:42:58;27.23;;;19.10;;
18286;SDS011;9269;50.838;12.094;2024-03-02T06:45:30;28.70;;;18.70;;
18286;SDS011;9269;50.838;12.094;2024-03-02T06:48:00;29.57;;;19.57;;
18286;SDS011;9269;50.838;12.094;2024-03-02T06:50:32;29.53;;;17.93;;
18286;SDS011;9269;50.838;12.094;2024-03-02T06:53:03;26.20;;;18.80;;
18286;SDS011;9269;50.838;12.094;2024-03-02T06:55:34;27.60;;;19.23;;
18286;SDS011;9269;50.838;12.094;2024-03-02T06:58:02;27.90;;;18.07;;
18286;SDS011;9269;50.838;12.094;2024-03-02T07:00:31;29.23;;;18.53;;
18286;SDS011;9269;50.838;12.094;2024-03-02T07:03:00;25.70;;;17.60;;
18286;SDS011;9269;50.838;12.094;2024-03-02T07:05:29;30.80;;;18.93;;
18286;SDS011;9269;50.838;12.094;2024-03-02T07:08:00;28.40;;;19.00;;
18286;SDS011;9269;50.838;12.094;2024-03-02T07:10:31;30.37;;;19.50;;
18286;SDS011;9269;50.838;12.094;2024-03-02T07:13:01;29.30;;;18.77;;
18286;SDS011;9269;50.838;12.094;2024-03-02T07:15:30;28.50;;;18.40;;
18286;SDS011;9269;50.838;12.094;2024-03-02T07:18:21;31.77;;;20.83;;
18286;SDS011;9269;50.838;12.094;2024-03-02T07:20:50;34.10;;;20.03;;
18286;SDS011;9269;50.838;12.094;2024-03-02T07:23:18;34.63;;;20.67;;
18286;SDS011;9269;50.838;12.094;2024-03-02T07:25:51;31.17;;;20.00;;
18286;SDS011;9269;50.838;12.094;2024-03-02T07:28:27;30.80;;;19.03;;
18286;SDS011;9269;50.838;12.094;2024-03-02T07:30:58;29.63;;;19.37;;
18286;SDS011;9269;50.838;12.094;2024-03-02T07:33:29;29.40;;;18.70;;
18286;SDS011;9269;50.838;12.094;2024-03-02T07:36:01;27.80;;;17.90;;
18286;SDS011;9269;50.838;12.094;2024-03-02T07:38:31;24.87;;;17.30;;
18286;SDS011;9269;50.838;12.094;2024-03-02T07:41:20;26.70;;;17.43;;
18286;SDS011;9269;50.838;12.094;2024-03-02T07:43:48;29.47;;;19.80;;
18286;SDS011;9269;50.838;12.094;2024-03-02T07:46:17;30.77;;;18.50;;
18286;SDS011;9269;50.838;12.094;2024-03-02T07:48:48;29.37;;;18.93;;
18286;SDS011;9269;50.838;12.094;2024-03-02T07:51:20;29.83;;;19.63;;
18286;SDS011;9269;50.838;12.094;2024-03-02T07:53:50;33.83;;;21.90;;
18286;SDS011;9269;50.838;12.094;2024-03-02T07:56:22;33.33;;;21.03;;
18286;SDS011;9269;50.838;12.094;2024-03-02T07:58:51;30.23;;;20.10;;
18286;SDS011;9269;50.838;12.094;2024-03-02T08:01:19;33.57;;;22.50;;
18286;SDS011;9269;50.838;12.094;2024-03-02T08:03:48;31.07;;;20.30;;
18286;SDS011;9269;50.838;12.094;2024-03-02T08:06:18;30.60;;;20.53;;
18286;SDS011;9269;50.838;12.094;2024-03-02T08:08:48;31.57;;;20.40;;
18286;SDS011;9269;50.838;12.094;2024-03-02T08:11:18;31.53;;;19.63;;
18286;SDS011;9269;50.838;12.094;2024-03-02T08:13:51;28.37;;;18.93;;
18286;SDS011;9269;50.838;12.094;2024-03-02T08:16:24;28.70;;;19.43;;
18286;SDS011;9269;50.838;12.094;2024-03-02T08:18:53;29.50;;;19.50;;
18286;SDS011;9269;50.838;12.094;2024-03-02T08:21:24;30.50;;;19.20;;
18286;SDS011;9269;50.838;12.094;2024-03-02T08:23:52;26.30;;;18.23;;
18286;SDS011;9269;50.838;12.094;2024-03-02T08:26:21;31.80;;;18.87;;
18286;SDS011;9269;50.838;12.094;2024-03-02T08:28:51;27.70;;;19.23;;
18286;SDS011;9269;50.838;12.094;2024-03-02T08:31:19;26.90;;;17.10;;
18286;SDS011;9269;50.838;12.094;2024-03-02T08:33:49;29.47;;;18.10;;
18286;SDS011;9269;50.838;12.094;2024-03-02T08:36:20;26.33;;;18.27;;
18286;SDS011;9269;50.838;12.094;2024-03-02T08:38:52;25.27;;;17.67;;
18286;SDS011;9269;50.838;12.094;2024-03-02T08:41:23;28.13;;;19.03;;
18286;SDS011;9269;50.838;12.094;2024-03-02T08:43:53;29.57;;;17.63;;
18286;SDS011;9269;50.838;12.094;2024-03-02T08:46:21;23.87;;;16.83;;
18286;SDS011;9269;50.838;12.094;2024-03-02T08:48:50;26.40;;;17.87;;
18286;SDS011;9269;50.838;12.094;2024-03-02T08:51:18;24.07;;;16.57;;
18286;SDS011;9269;50.838;12.094;2024-03-02T08:54:06;25.10;;;16.80;;
18286;SDS011;9269;50.838;12.094;2024-03-02T08:56:37;23.50;;;16.17;;
18286;SDS011;9269;50.838;12.094;2024-03-02T08:59:10;25.03;;;16.53;;
18286;SDS011;9269;50.838;12.094;2024-03-02T09:01:41;21.27;;;15.00;;
18286;SDS011;9269;50.838;12.094;2024-03-02T09:04:13;23.97;;;16.70;;
18286;SDS011;9269;50.838;12.094;2024-03-02T09:06:41;22.07;;;15.53;;
18286;SDS011;9269;50.838;12.094;2024-03-02T09:09:10;23.53;;;15.73;;
18286;SDS011;9269;50.838;12.094;2024-03-02T09:11:38;22.50;;;16.30;;
18286;SDS011;9269;50.838;12.094;2024-03-02T09:14:07;21.60;;;14.53;;
18286;SDS011;9269;50.838;12.094;2024-03-02T09:16:39;21.60;;;15.27;;
18286;SDS011;9269;50.838;12.094;2024-03-02T09:19:11;20.90;;;15.17;;
18286;SDS011;9269;50.838;12.094;2024-03-02T09:21:42;19.50;;;14.07;;
18286;SDS011;9269;50.838;12.094;2024-03-02T09:24:13;20.77;;;14.23;;
18286;SDS011;9269;50.838;12.094;2024-03-02T09:26:44;19.93;;;14.57;;
18286;SDS011;9269;50.838;12.094;2024-03-02T09:29:12;23.40;;;15.47;;
18286;SDS011;9269;50.838;12.094;2024-03-02T09:31:43;19.70;;;14.67;;
18286;SDS011;9269;50.838;12.094;2024-03-02T09:34:12;23.27;;;15.50;;
18286;SDS011;9269;50.838;12.094;2024-03-02T09:36:41;20.57;;;14.40;;
18286;SDS011;9269;50.838;12.094;2024-03-02T09:39:10;22.07;;;13.93;;
18286;SDS011;9269;50.838;12.094;2024-03-02T09:41:41;19.70;;;13.80;;
18286;SDS011;9269;50.838;12.094;2024-03-02T09:44:12;19.13;;;13.00;;
18286;SDS011;9269;50.838;12.094;2024-03-02T09:46:44;19.43;;;12.83;;
18286;SDS011;9269;50.838;12.094;2024-03-02T09:49:17;17.07;;;12.97;;
18286;SDS011;9269;50.838;12.094;2024-03-02T09:51:46;17.83;;;12.87;;
18286;SDS011;9269;50.838;12.094;2024-03-02T09:54:16;18.17;;;13.17;;
18286;SDS011;9269;50.838;12.094;2024-03-02T09:56:49;16.47;;;12.77;;
18286;SDS011;9269;50.838;12.094;2024-03-02T09:59:21;18.03;;;12.43;;
18286;SDS011;9269;50.838;12.094;2024-03-02T10:01:57;17.47;;;13.27;;
18286;SDS011;9269;50.838;12.094;2024-03-02T10:04:29;18.23;;;12.47;;
18286;SDS011;9269;50.838;12.094;2024-03-02T10:07:09;17.30;;;12.93;;
18286;SDS011;9269;50.838;12.094;2024-03-02T10:09:40;18.10;;;12.50;;
18286;SDS011;9269;50.838;12.094;2024-03-02T10:12:09;17.57;;;13.00;;
18286;SDS011;9269;50.838;12.094;2024-03-02T10:14:39;18.53;;;13.30;;
18286;SDS011;9269;50.838;12.094;2024-03-02T10:17:10;18.07;;;12.80;;
18286;SDS011;9269;50.838;12.094;2024-03-02T10:19:39;19.80;;;12.67;;
18286;SDS011;9269;50.838;12.094;2024-03-02T10:22:10;17.20;;;13.10;;
18286;SDS011;9269;50.838;12.094;2024-03-02T10:24:43;21.17;;;15.77;;
18286;SDS011;9269;50.838;12.094;2024-03-02T10:27:16;18.20;;;13.20;;
18286;SDS011;9269;50.838;12.094;2024-03-02T10:29:47;16.67;;;12.27;;
18286;SDS011;9269;50.838;12.094;2024-03-02T10:32:17;16.23;;;11.87;;
18286;SDS011;9269;50.838;12.094;2024-03-02T10:34:46;15.33;;;11.30;;
18286;SDS011;9269;50.838;12.094;2024-03-02T10:37:15;15.17;;;10.37;;
18286;SDS011;9269;50.838;12.094;2024-03-02T10:39:45;14.60;;;11.03;;
18286;SDS011;9269;50.838;12.094;2024-03-02T10:42:15;17.60;;;13.57;;
18286;SDS011;9269;50.838;12.094;2024-03-02T10:44:48;14.17;;;11.17;;
18286;SDS011;9269;50.838;12.094;2024-03-02T10:47:21;14.53;;;11.10;;
18286;SDS011;9269;50.838;12.094;2024-03-02T10:49:54;13.30;;;9.67;;
18286;SDS011;9269;50.838;12.094;2024-03-02T10:52:25;14.43;;;10.63;;
18286;SDS011;9269;50.838;12.094;2024-03-02T10:54:54;14.23;;;10.83;;
18286;SDS011;9269;50.838;12.094;2024-03-02T10:57:23;13.30;;;10.07;;
18286;SDS011;9269;50.838;12.094;2024-03-02T10:59:56;12.90;;;10.63;;
18286;SDS011;9269;50.838;12.094;2024-03-02T11:02:30;12.47;;;10.10;;
18286;SDS011;9269;50.838;12.094;2024-03-02T11:05:05;11.33;;;10.03;;
18286;SDS011;9269;50.838;12.094;2024-03-02T11:07:38;13.70;;;10.37;;
18286;SDS011;9269;50.838;12.094;2024-03-02T11:10:08;13.73;;;10.70;;
18286;SDS011;9269;50.838;12.094;2024-03-02T11:12:43;11.97;;;10.03;;
18286;SDS011;9269;50.838;12.094;2024-03-02T11:15:22;12.00;;;9.97;;
18286;SDS011;9269;50.838;12.094;2024-03-02T11:17:55;13.30;;;10.50;;
18286;SDS011;9269;50.838;12.094;2024-03-02T11:20:24;12.40;;;10.80;;
18286;SDS011;9269;50.838;12.094;2024-03-02T11:22:55;13.13;;;10.83;;
18286;SDS011;9269;50.838;12.094;2024-03-02T11:25:24;11.90;;;9.73;;
18286;SDS011;9269;50.838;12.094;2024-03-02T11:28:00;12.17;;;10.23;;
18286;SDS011;9269;50.838;12.094;2024-03-02T11:30:51;12.63;;;10.33;;
18286;SDS011;9269;50.838;12.094;2024-03-02T11:33:27;12.17;;;9.60;;
18286;SDS011;9269;50.838;12.094;2024-03-02T11:35:59;12.63;;;10.80;;
18286;SDS011;9269;50.838;12.094;2024-03-02T11:38:32;12.10;;;10.63;;
18286;SDS011;9269;50.838;12.094;2024-03-02T11:41:02;12.63;;;10.47;;
18286;SDS011;9269;50.838;12.094;2024-03-02T11:43:36;11.03;;;9.63;;
18286;SDS011;9269;50.838;12.094;2024-03-02T11:46:06;12.70;;;9.83;;
18286;SDS011;9269;50.838;12.094;2024-03-02T11:48:38;10.20;;;8.60;;
18286;SDS011;9269;50.838;12.094;2024-03-02T11:51:07;9.43;;;8.40;;
18286;SDS011;9269;50.838;12.094;2024-03-02T11:53:40;11.37;;;9.30;;
18286;SDS011;9269;50.838;12.094;2024-03-02T11:56:11;8.53;;;7.63;;
18286;SDS011;9269;50.838;12.094;2024-03-02T11:58:44;9.00;;;7.73;;
18286;SDS011;9269;50.838;12.094;2024-03-02T12:01:16;9.73;;;8.00;;
18286;SDS011;9269;50.838;12.094;2024-03-02T12:03:46;9.27;;;8.27;;
18286;SDS011;9269;50.838;12.094;2024-03-02T12:06:15;11.60;;;9.00;;
18286;SDS011;9269;50.838;12.094;2024-03-02T12:08:46;10.37;;;8.77;;
18286;SDS011;9269;50.838;12.094;2024-03-02T12:11:21;10.50;;;8.40;;
18286;SDS011;9269;50.838;12.094;2024-03-02T12:13:53;9.63;;;7.97;;
18286;SDS011;9269;50.838;12.094;2024-03-02T12:16:25;9.63;;;8.07;;
18286;SDS011;9269;50.838;12.094;2024-03-02T12:18:58;10.67;;;9.30;;
18286;SDS011;9269;50.838;12.094;2024-03-02T12:21:27;10.90;;;8.60;;
18286;SDS011;9269;50.838;12.094;2024-03-02T12:23:59;10.13;;;8.60;;
18286;SDS011;9269;50.838;12.094;2024-03-02T12:26:29;9.53;;;8.53;;
18286;SDS011;9269;50.838;12.094;2024-03-02T12:28:58;9.97;;;8.80;;
18286;SDS011;9269;50.838;12.094;2024-03-02T12:31:27;9.17;;;8.23;;
18286;SDS011;9269;50.838;12.094;2024-03-02T12:33:59;9.07;;;8.17;;
18286;SDS011;9269;50.838;12.094;2024-03-02T12:36:36;7.43;;;6.60;;
18286;SDS011;9269;50.838;12.094;2024-03-02T12:39:07;8.77;;;7.57;;
18286;SDS011;9269;50.838;12.094;2024-03-02T12:41:38;11.17;;;8.47;;
18286;SDS011;9269;50.838;12.094;2024-03-02T12:44:08;9.57;;;8.47;;
18286;SDS011;9269;50.838;12.094;2024-03-02T12:46:37;9.03;;;7.97;;
18286;SDS011;9269;50.838;12.094;2024-03-02T12:49:08;8.97;;;8.07;;
18286;SDS011;9269;50.838;12.094;2024-03-02T12:51:38;9.47;;;8.27;;
18286;SDS011;9269;50.838;12.094;2024-03-02T12:54:26;9.80;;;8.40;;
18286;SDS011;9269;50.838;12.094;2024-03-02T12:56:58;9.70;;;8.17;;
18286;SDS011;9269;50.838;12.094;2024-03-02T12:59:27;9.73;;;8.17;;
18286;SDS011;9269;50.838;12.094;2024-03-02T13:01:59;12.40;;;9.40;;
18286;SDS011;9269;50.838;12.094;2024-03-02T13:04:31;9.07;;;8.07;;
18286;SDS011;9269;50.838;12.094;2024-03-02T13:06:59;9.73;;;7.90;;
18286;SDS011;9269;50.838;12.094;2024-03-02T13:09:29;9.40;;;7.70;;
18286;SDS011;9269;50.838;12.094;2024-03-02T13:11:58;8.80;;;7.80;;
18286;SDS011;9269;50.838;12.094;2024-03-02T13:14:27;8.67;;;7.50;;
18286;SDS011;9269;50.838;12.094;2024-03-02T13:17:01;8.03;;;7.23;;
18286;SDS011;9269;50.838;12.094;2024-03-02T13:19:35;8.33;;;7.07;;
18286;SDS011;9269;50.838;12.094;2024-03-02T13:22:05;7.57;;;6.50;;
18286;SDS011;9269;50.838;12.094;2024-03-02T13:24:35;8.17;;;7.23;;
18286;SDS011;9269;50.838;12.094;2024-03-02T13:27:04;7.73;;;6.80;;
18286;SDS011;9269;50.838;12.094;2024-03-02T13:29:32;8.57;;;7.13;;
18286;SDS011;9269;50.838;12.094;2024-03-02T13:32:00;7.57;;;6.77;;
18286;SDS011;9269;50.838;12.094;2024-03-02T13:34:29;6.93;;;6.17;;
18286;SDS011;9269;50.838;12.094;2024-03-02T13:36:58;8.40;;;7.20;;
18286;SDS011;9269;50.838;12.094;2024-03-02T13:39:29;8.57;;;7.67;;
18286;SDS011;9269;50.838;12.094;2024-03-02T13:42:01;7.93;;;7.13;;
18286;SDS011;9269;50.838;12.094;2024-03-02T13:44:35;7.90;;;6.93;;
18286;SDS011;9269;50.838;12.094;2024-03-02T13:47:07;8.57;;;7.53;;
18286;SDS011;9269;50.838;12.094;2024-03-02T13:49:35;9.57;;;7.30;;
18286;SDS011;9269;50.838;12.094;2024-03-02T13:52:07;8.03;;;7.00;;
18286;SDS011;9269;50.838;12.094;2024-03-02T13:54:40;8.67;;;7.23;;
18286;SDS011;9269;50.838;12.094;2024-03-02T13:57:09;7.13;;;6.20;;
18286;SDS011;9269;50.838;12.094;2024-03-02T13:59:44;7.80;;;6.70;;
18286;SDS011;9269;50.838;12.094;2024-03-02T14:02:14;8.33;;;6.57;;
18286;SDS011;9269;50.838;12.094;2024-03-02T14:04:43;7.53;;;6.13;;
18286;SDS011;9269;50.838;12.094;2024-03-02T14:07:14;7.57;;;6.30;;
18286;SDS011;9269;50.838;12.094;2024-03-02T14:09:44;8.00;;;6.77;;
18286;SDS011;9269;50.838;12.094;2024-03-02T14:12:13;8.53;;;7.70;;
18286;SDS011;9269;50.838;12.094;2024-03-02T14:14:42;8.70;;;7.30;;
18286;SDS011;9269;50.838;12.094;2024-03-02T14:17:10;7.73;;;6.93;;
18286;SDS011;9269;50.838;12.094;2024-03-02T14:19:41;8.13;;;7.33;;
18286;SDS011;9269;50.838;12.094;2024-03-02T14:22:14;8.70;;;6.83;;
18286;SDS011;9269;50.838;12.094;2024-03-02T14:24:47;9.07;;;7.53;;
18286;SDS011;9269;50.838;12.094;2024-03-02T14:27:19;8.07;;;6.53;;
18286;SDS011;9269;50.838;12.094;2024-03-02T14:30:07;8.10;;;7.30;;
18286;SDS011;9269;50.838;12.094;2024-03-02T14:32:37;10.70;;;8.53;;
18286;SDS011;9269;50.838;12.094;2024-03-02T14:35:05;8.03;;;7.23;;
18286;SDS011;9269;50.838;12.094;2024-03-02T14:37:38;8.20;;;6.90;;
18286;SDS011;9269;50.838;12.094;2024-03-02T14:40:08;8.77;;;7.80;;
18286;SDS011;9269;50.838;12.094;2024-03-02T14:42:37;8.27;;;7.47;;
18286;SDS011;9269;50.838;12.094;2024-03-02T14:45:08;8.00;;;7.20;;
18286;SDS011;9269;50.838;12.094;2024-03-02T14:47:38;8.60;;;7.47;;
18286;SDS011;9269;50.838;12.094;2024-03-02T14:50:10;8.30;;;7.03;;
18286;SDS011;9269;50.838;12.094;2024-03-02T14:52:41;8.30;;;6.90;;